sensor_id;sensor_type;location;lat;lon;timestamp;P1;durP1;ratioP1;P2;durP2;ratioP2
76693;SDS011;69667;52.136;5.424;2023-05-23T00:00:57;17.38;;;5.25;;
76693;SDS011;69667;52.136;5.424;2023-05-23T00:03:24;12.10;;;5.53;;
76693;SDS011;69667;52.136;5.424;2023-05-23T00:05:51;12.07;;;5.68;;
76693;SDS011;69667;52.136;5.424;2023-05-23T00:08:18;11.90;;;5.75;;
76693;SDS011;69667;52.136;5.424;2023-05-23T00:10:44;15.32;;;6.10;;
76693;SDS011;69667;52.136;5.424;2023-05-23T00:13:11;11.02;;;5.80;;
76693;SDS011;69667;52.136;5.424;2023-05-23T00:15:38;14.20;;;6.45;;
76693;SDS011;69667;52.136;5.424;2023-05-23T00:20:37;12.90;;;5.90;;
76693;SDS011;69667;52.136;5.424;2023-05-23T00:23:08;15.02;;;6.32;;
76693;SDS011;69667;52.136;5.424;2023-05-23T00:25:35;13.27;;;6.82;;
76693;SDS011;69667;52.136;5.424;2023-05-23T00:28:03;17.35;;;7.00;;
76693;SDS011;69667;52.136;5.424;2023-05-23T00:30:31;15.45;;;6.97;;
76693;SDS011;69667;52.136;5.424;2023-05-23T00:32:59;12.43;;;5.95;;
76693;SDS011;69667;52.136;5.424;2023-05-23T00:35:26;14.68;;;6.55;;
76693;SDS011;69667;52.136;5.424;2023-05-23T00:37:53;14.30;;;7.10;;
76693;SDS011;69667;52.136;5.424;2023-05-23T00:40:21;12.20;;;6.38;;
76693;SDS011;69667;52.136;5.424;2023-05-23T00:42:48;18.00;;;6.60;;
76693;SDS011;69667;52.136;5.424;2023-05-23T00:45:15;14.77;;;6.40;;
76693;SDS011;69667;52.136;5.424;2023-05-23T00:47:42;13.77;;;6.07;;
76693;SDS011;69667;52.136;5.424;2023-05-23T00:50:11;16.52;;;5.80;;
76693;SDS011;69667;52.136;5.424;2023-05-23T00:52:40;10.25;;;5.78;;
76693;SDS011;69667;52.136;5.424;2023-05-23T00:55:08;13.00;;;5.35;;
76693;SDS011;69667;52.136;5.424;2023-05-23T00:57:35;11.43;;;5.10;;
76693;SDS011;69667;52.136;5.424;2023-05-23T01:00:07;10.18;;;5.07;;
76693;SDS011;69667;52.136;5.424;2023-05-23T01:05:14;11.02;;;4.45;;
76693;SDS011;69667;52.136;5.424;2023-05-23T01:07:43;8.75;;;4.50;;
76693;SDS011;69667;52.136;5.424;2023-05-23T01:10:10;10.73;;;4.70;;
76693;SDS011;69667;52.136;5.424;2023-05-23T01:15:11;11.75;;;4.75;;
76693;SDS011;69667;52.136;5.424;2023-05-23T01:18:01;9.70;;;4.75;;
76693;SDS011;69667;52.136;5.424;2023-05-23T01:20:39;7.78;;;4.88;;
76693;SDS011;69667;52.136;5.424;2023-05-23T01:26:25;8.65;;;4.57;;
76693;SDS011;69667;52.136;5.424;2023-05-23T01:29:10;9.70;;;4.70;;
76693;SDS011;69667;52.136;5.424;2023-05-23T01:31:41;10.50;;;4.80;;
76693;SDS011;69667;52.136;5.424;2023-05-23T01:34:15;9.27;;;4.57;;
76693;SDS011;69667;52.136;5.424;2023-05-23T01:36:44;11.77;;;4.35;;
76693;SDS011;69667;52.136;5.424;2023-05-23T01:39:11;8.55;;;4.35;;
76693;SDS011;69667;52.136;5.424;2023-05-23T01:41:38;13.57;;;4.93;;
76693;SDS011;69667;52.136;5.424;2023-05-23T01:44:05;7.97;;;4.15;;
76693;SDS011;69667;52.136;5.424;2023-05-23T01:46:32;8.45;;;4.43;;
76693;SDS011;69667;52.136;5.424;2023-05-23T01:49:01;9.45;;;4.20;;
76693;SDS011;69667;52.136;5.424;2023-05-23T01:51:30;11.90;;;4.70;;
76693;SDS011;69667;52.136;5.424;2023-05-23T01:53:58;10.68;;;5.00;;
76693;SDS011;69667;52.136;5.424;2023-05-23T01:56:26;9.57;;;4.53;;
76693;SDS011;69667;52.136;5.424;2023-05-23T01:58:53;10.10;;;4.53;;
76693;SDS011;69667;52.136;5.424;2023-05-23T02:01:20;11.02;;;4.82;;
76693;SDS011;69667;52.136;5.424;2023-05-23T02:03:47;10.90;;;4.25;;
76693;SDS011;69667;52.136;5.424;2023-05-23T02:06:14;9.35;;;4.90;;
76693;SDS011;69667;52.136;5.424;2023-05-23T02:08:41;11.15;;;4.57;;
76693;SDS011;69667;52.136;5.424;2023-05-23T02:11:08;11.60;;;4.93;;
76693;SDS011;69667;52.136;5.424;2023-05-23T02:13:35;9.82;;;4.88;;
76693;SDS011;69667;52.136;5.424;2023-05-23T02:16:02;10.15;;;4.35;;
76693;SDS011;69667;52.136;5.424;2023-05-23T02:18:29;10.63;;;4.13;;
76693;SDS011;69667;52.136;5.424;2023-05-23T02:20:55;11.77;;;4.50;;
76693;SDS011;69667;52.136;5.424;2023-05-23T02:23:22;14.07;;;4.75;;
76693;SDS011;69667;52.136;5.424;2023-05-23T02:25:48;12.15;;;4.43;;
76693;SDS011;69667;52.136;5.424;2023-05-23T02:28:15;8.20;;;3.95;;
76693;SDS011;69667;52.136;5.424;2023-05-23T02:30:42;9.48;;;4.30;;
76693;SDS011;69667;52.136;5.424;2023-05-23T02:33:11;11.90;;;4.50;;
76693;SDS011;69667;52.136;5.424;2023-05-23T02:35:38;9.10;;;4.13;;
76693;SDS011;69667;52.136;5.424;2023-05-23T02:38:05;12.77;;;4.32;;
76693;SDS011;69667;52.136;5.424;2023-05-23T02:40:32;10.90;;;3.95;;
76693;SDS011;69667;52.136;5.424;2023-05-23T02:43:00;8.55;;;4.03;;
76693;SDS011;69667;52.136;5.424;2023-05-23T02:45:26;9.30;;;4.63;;
76693;SDS011;69667;52.136;5.424;2023-05-23T02:47:53;12.82;;;4.30;;
76693;SDS011;69667;52.136;5.424;2023-05-23T02:50:19;9.20;;;4.35;;
76693;SDS011;69667;52.136;5.424;2023-05-23T02:52:46;11.82;;;4.43;;
76693;SDS011;69667;52.136;5.424;2023-05-23T02:55:12;9.50;;;3.92;;
76693;SDS011;69667;52.136;5.424;2023-05-23T02:57:43;10.25;;;3.95;;
76693;SDS011;69667;52.136;5.424;2023-05-23T03:00:10;10.27;;;4.60;;
76693;SDS011;69667;52.136;5.424;2023-05-23T03:02:37;11.70;;;4.20;;
76693;SDS011;69667;52.136;5.424;2023-05-23T03:05:04;14.95;;;4.88;;
76693;SDS011;69667;52.136;5.424;2023-05-23T03:07:31;10.73;;;4.55;;
76693;SDS011;69667;52.136;5.424;2023-05-23T03:10:02;9.30;;;4.03;;
76693;SDS011;69667;52.136;5.424;2023-05-23T03:12:31;12.45;;;4.47;;
76693;SDS011;69667;52.136;5.424;2023-05-23T03:14:58;14.20;;;4.32;;
76693;SDS011;69667;52.136;5.424;2023-05-23T03:17:24;13.45;;;3.92;;
76693;SDS011;69667;52.136;5.424;2023-05-23T03:19:51;12.57;;;4.95;;
76693;SDS011;69667;52.136;5.424;2023-05-23T03:22:17;16.15;;;5.38;;
76693;SDS011;69667;52.136;5.424;2023-05-23T03:24:44;10.15;;;3.80;;
76693;SDS011;69667;52.136;5.424;2023-05-23T03:27:11;12.80;;;4.13;;
76693;SDS011;69667;52.136;5.424;2023-05-23T03:29:37;11.77;;;4.57;;
76693;SDS011;69667;52.136;5.424;2023-05-23T03:32:04;12.05;;;4.65;;
76693;SDS011;69667;52.136;5.424;2023-05-23T03:34:31;13.85;;;5.30;;
76693;SDS011;69667;52.136;5.424;2023-05-23T03:36:59;15.55;;;5.10;;
76693;SDS011;69667;52.136;5.424;2023-05-23T03:39:25;13.98;;;5.07;;
76693;SDS011;69667;52.136;5.424;2023-05-23T03:41:52;15.68;;;5.20;;
76693;SDS011;69667;52.136;5.424;2023-05-23T03:44:20;16.27;;;5.30;;
76693;SDS011;69667;52.136;5.424;2023-05-23T03:46:46;16.55;;;5.40;;
76693;SDS011;69667;52.136;5.424;2023-05-23T03:49:14;16.75;;;5.25;;
76693;SDS011;69667;52.136;5.424;2023-05-23T03:51:41;17.35;;;5.63;;
76693;SDS011;69667;52.136;5.424;2023-05-23T03:54:07;16.42;;;5.63;;
76693;SDS011;69667;52.136;5.424;2023-05-23T03:56:34;17.33;;;5.82;;
76693;SDS011;69667;52.136;5.424;2023-05-23T03:59:01;16.10;;;5.38;;
76693;SDS011;69667;52.136;5.424;2023-05-23T04:01:28;17.17;;;5.50;;
76693;SDS011;69667;52.136;5.424;2023-05-23T04:03:55;17.42;;;5.80;;
76693;SDS011;69667;52.136;5.424;2023-05-23T04:06:24;19.48;;;4.88;;
76693;SDS011;69667;52.136;5.424;2023-05-23T04:08:51;15.20;;;5.15;;
76693;SDS011;69667;52.136;5.424;2023-05-23T04:11:18;15.45;;;4.78;;
76693;SDS011;69667;52.136;5.424;2023-05-23T04:13:45;18.30;;;5.22;;
76693;SDS011;69667;52.136;5.424;2023-05-23T04:16:12;16.73;;;4.57;;
76693;SDS011;69667;52.136;5.424;2023-05-23T04:18:39;17.73;;;5.00;;
76693;SDS011;69667;52.136;5.424;2023-05-23T04:21:06;12.20;;;4.07;;
76693;SDS011;69667;52.136;5.424;2023-05-23T04:23:37;15.93;;;4.70;;
76693;SDS011;69667;52.136;5.424;2023-05-23T04:26:05;13.57;;;4.10;;
76693;SDS011;69667;52.136;5.424;2023-05-23T04:28:34;16.00;;;4.15;;
76693;SDS011;69667;52.136;5.424;2023-05-23T04:31:01;15.15;;;4.45;;
76693;SDS011;69667;52.136;5.424;2023-05-23T04:33:31;14.45;;;4.22;;
76693;SDS011;69667;52.136;5.424;2023-05-23T04:36:01;16.02;;;3.65;;
76693;SDS011;69667;52.136;5.424;2023-05-23T04:38:27;14.57;;;2.92;;
76693;SDS011;69667;52.136;5.424;2023-05-23T04:40:54;10.05;;;3.55;;
76693;SDS011;69667;52.136;5.424;2023-05-23T04:43:31;13.80;;;3.10;;
76693;SDS011;69667;52.136;5.424;2023-05-23T04:46:34;10.23;;;3.00;;
76693;SDS011;69667;52.136;5.424;2023-05-23T04:49:09;11.93;;;3.05;;
76693;SDS011;69667;52.136;5.424;2023-05-23T04:51:36;10.25;;;3.25;;
76693;SDS011;69667;52.136;5.424;2023-05-23T04:54:29;9.38;;;3.00;;
76693;SDS011;69667;52.136;5.424;2023-05-23T04:56:58;7.78;;;2.97;;
76693;SDS011;69667;52.136;5.424;2023-05-23T04:59:26;11.27;;;3.40;;
76693;SDS011;69667;52.136;5.424;2023-05-23T05:01:53;11.43;;;2.67;;
76693;SDS011;69667;52.136;5.424;2023-05-23T05:04:20;11.15;;;3.35;;
76693;SDS011;69667;52.136;5.424;2023-05-23T05:06:49;12.68;;;3.53;;
76693;SDS011;69667;52.136;5.424;2023-05-23T05:09:16;8.25;;;2.78;;
76693;SDS011;69667;52.136;5.424;2023-05-23T05:11:43;9.65;;;3.40;;
76693;SDS011;69667;52.136;5.424;2023-05-23T05:14:10;9.98;;;3.50;;
76693;SDS011;69667;52.136;5.424;2023-05-23T05:16:36;12.68;;;3.88;;
76693;SDS011;69667;52.136;5.424;2023-05-23T05:19:03;13.43;;;3.03;;
76693;SDS011;69667;52.136;5.424;2023-05-23T05:21:31;7.70;;;2.85;;
76693;SDS011;69667;52.136;5.424;2023-05-23T05:23:58;7.75;;;2.85;;
76693;SDS011;69667;52.136;5.424;2023-05-23T05:26:25;9.65;;;2.92;;
76693;SDS011;69667;52.136;5.424;2023-05-23T05:28:52;9.85;;;2.95;;
76693;SDS011;69667;52.136;5.424;2023-05-23T05:31:20;8.68;;;2.55;;
76693;SDS011;69667;52.136;5.424;2023-05-23T05:33:47;12.63;;;2.85;;
76693;SDS011;69667;52.136;5.424;2023-05-23T05:36:15;11.02;;;3.40;;
76693;SDS011;69667;52.136;5.424;2023-05-23T05:38:42;13.98;;;3.78;;
76693;SDS011;69667;52.136;5.424;2023-05-23T05:41:09;12.63;;;2.78;;
76693;SDS011;69667;52.136;5.424;2023-05-23T05:43:40;11.93;;;3.22;;
76693;SDS011;69667;52.136;5.424;2023-05-23T05:46:07;9.43;;;2.70;;
76693;SDS011;69667;52.136;5.424;2023-05-23T05:48:33;10.98;;;3.15;;
76693;SDS011;69667;52.136;5.424;2023-05-23T05:51:04;11.82;;;3.75;;
76693;SDS011;69667;52.136;5.424;2023-05-23T05:53:32;11.73;;;3.67;;
76693;SDS011;69667;52.136;5.424;2023-05-23T05:55:59;11.82;;;3.70;;
76693;SDS011;69667;52.136;5.424;2023-05-23T05:58:26;9.05;;;2.95;;
76693;SDS011;69667;52.136;5.424;2023-05-23T06:00:59;13.45;;;3.38;;
76693;SDS011;69667;52.136;5.424;2023-05-23T06:03:25;10.00;;;3.17;;
76693;SDS011;69667;52.136;5.424;2023-05-23T06:05:54;15.25;;;3.90;;
76693;SDS011;69667;52.136;5.424;2023-05-23T06:08:20;14.35;;;3.65;;
76693;SDS011;69667;52.136;5.424;2023-05-23T06:10:47;12.52;;;3.55;;
76693;SDS011;69667;52.136;5.424;2023-05-23T06:13:13;10.27;;;3.10;;
76693;SDS011;69667;52.136;5.424;2023-05-23T06:15:47;8.88;;;3.42;;
76693;SDS011;69667;52.136;5.424;2023-05-23T06:18:17;13.10;;;3.83;;
76693;SDS011;69667;52.136;5.424;2023-05-23T06:20:43;10.93;;;3.67;;
76693;SDS011;69667;52.136;5.424;2023-05-23T06:23:13;12.43;;;3.63;;
76693;SDS011;69667;52.136;5.424;2023-05-23T06:25:40;10.80;;;3.58;;
76693;SDS011;69667;52.136;5.424;2023-05-23T06:28:07;11.15;;;3.70;;
76693;SDS011;69667;52.136;5.424;2023-05-23T06:30:34;10.85;;;3.35;;
76693;SDS011;69667;52.136;5.424;2023-05-23T06:33:03;11.05;;;3.90;;
76693;SDS011;69667;52.136;5.424;2023-05-23T06:35:29;9.15;;;3.03;;
76693;SDS011;69667;52.136;5.424;2023-05-23T06:37:59;12.77;;;3.55;;
76693;SDS011;69667;52.136;5.424;2023-05-23T06:40:25;11.57;;;3.75;;
76693;SDS011;69667;52.136;5.424;2023-05-23T06:42:52;13.95;;;3.65;;
76693;SDS011;69667;52.136;5.424;2023-05-23T06:45:30;9.25;;;3.45;;
76693;SDS011;69667;52.136;5.424;2023-05-23T06:47:57;12.40;;;4.18;;
76693;SDS011;69667;52.136;5.424;2023-05-23T06:50:26;14.35;;;3.47;;
76693;SDS011;69667;52.136;5.424;2023-05-23T06:52:53;10.13;;;3.05;;
76693;SDS011;69667;52.136;5.424;2023-05-23T06:55:19;10.95;;;3.55;;
76693;SDS011;69667;52.136;5.424;2023-05-23T06:57:47;10.27;;;3.22;;
76693;SDS011;69667;52.136;5.424;2023-05-23T07:00:19;7.80;;;2.40;;
76693;SDS011;69667;52.136;5.424;2023-05-23T07:02:58;4.90;;;2.20;;
76693;SDS011;69667;52.136;5.424;2023-05-23T07:05:29;8.25;;;2.60;;
76693;SDS011;69667;52.136;5.424;2023-05-23T07:07:56;12.00;;;2.45;;
76693;SDS011;69667;52.136;5.424;2023-05-23T07:10:23;6.97;;;2.20;;
76693;SDS011;69667;52.136;5.424;2023-05-23T07:12:54;7.85;;;2.30;;
76693;SDS011;69667;52.136;5.424;2023-05-23T07:15:23;6.13;;;2.00;;
76693;SDS011;69667;52.136;5.424;2023-05-23T07:18:01;12.18;;;1.90;;
76693;SDS011;69667;52.136;5.424;2023-05-23T07:20:31;7.95;;;2.08;;
76693;SDS011;69667;52.136;5.424;2023-05-23T07:23:05;8.52;;;2.10;;
76693;SDS011;69667;52.136;5.424;2023-05-23T07:25:32;11.15;;;2.17;;
76693;SDS011;69667;52.136;5.424;2023-05-23T07:28:00;7.72;;;1.52;;
76693;SDS011;69667;52.136;5.424;2023-05-23T07:30:27;10.52;;;1.90;;
76693;SDS011;69667;52.136;5.424;2023-05-23T07:32:56;10.25;;;2.17;;
76693;SDS011;69667;52.136;5.424;2023-05-23T07:35:23;10.77;;;1.50;;
76693;SDS011;69667;52.136;5.424;2023-05-23T07:37:51;10.73;;;1.90;;
76693;SDS011;69667;52.136;5.424;2023-05-23T07:40:19;9.75;;;1.58;;
76693;SDS011;69667;52.136;5.424;2023-05-23T07:42:47;10.38;;;1.65;;
76693;SDS011;69667;52.136;5.424;2023-05-23T07:45:13;8.55;;;1.75;;
76693;SDS011;69667;52.136;5.424;2023-05-23T07:47:43;7.18;;;1.40;;
76693;SDS011;69667;52.136;5.424;2023-05-23T07:52:41;10.95;;;1.95;;
76693;SDS011;69667;52.136;5.424;2023-05-23T07:55:11;10.98;;;1.50;;
76693;SDS011;69667;52.136;5.424;2023-05-23T07:57:37;9.85;;;1.85;;
76693;SDS011;69667;52.136;5.424;2023-05-23T08:00:04;9.10;;;1.58;;
76693;SDS011;69667;52.136;5.424;2023-05-23T08:02:40;10.65;;;1.83;;
76693;SDS011;69667;52.136;5.424;2023-05-23T08:05:12;12.82;;;2.10;;
76693;SDS011;69667;52.136;5.424;2023-05-23T08:07:39;11.80;;;2.10;;
76693;SDS011;69667;52.136;5.424;2023-05-23T08:10:06;9.68;;;1.88;;
76693;SDS011;69667;52.136;5.424;2023-05-23T08:12:33;9.88;;;1.85;;
76693;SDS011;69667;52.136;5.424;2023-05-23T08:15:06;12.73;;;1.75;;
76693;SDS011;69667;52.136;5.424;2023-05-23T08:17:39;12.73;;;2.03;;
76693;SDS011;69667;52.136;5.424;2023-05-23T08:20:06;9.52;;;1.92;;
76693;SDS011;69667;52.136;5.424;2023-05-23T08:25:06;11.02;;;1.80;;
76693;SDS011;69667;52.136;5.424;2023-05-23T08:27:36;10.15;;;2.15;;
76693;SDS011;69667;52.136;5.424;2023-05-23T08:30:13;9.02;;;1.95;;
76693;SDS011;69667;52.136;5.424;2023-05-23T08:32:44;13.90;;;2.70;;
76693;SDS011;69667;52.136;5.424;2023-05-23T08:37:41;7.55;;;1.70;;
76693;SDS011;69667;52.136;5.424;2023-05-23T08:40:11;14.63;;;2.15;;
76693;SDS011;69667;52.136;5.424;2023-05-23T08:42:44;10.77;;;2.08;;
76693;SDS011;69667;52.136;5.424;2023-05-23T08:45:12;7.25;;;1.63;;
76693;SDS011;69667;52.136;5.424;2023-05-23T08:47:41;9.25;;;1.92;;
76693;SDS011;69667;52.136;5.424;2023-05-23T08:50:11;12.63;;;2.20;;
76693;SDS011;69667;52.136;5.424;2023-05-23T08:52:42;11.10;;;1.88;;
76693;SDS011;69667;52.136;5.424;2023-05-23T08:55:13;13.90;;;1.83;;
76693;SDS011;69667;52.136;5.424;2023-05-23T08:57:46;6.88;;;1.60;;
76693;SDS011;69667;52.136;5.424;2023-05-23T09:00:50;8.95;;;2.25;;
76693;SDS011;69667;52.136;5.424;2023-05-23T09:03:19;14.45;;;2.75;;
76693;SDS011;69667;52.136;5.424;2023-05-23T09:05:59;8.13;;;2.00;;
76693;SDS011;69667;52.136;5.424;2023-05-23T09:08:28;10.35;;;2.13;;
76693;SDS011;69667;52.136;5.424;2023-05-23T09:10:57;11.10;;;2.13;;
76693;SDS011;69667;52.136;5.424;2023-05-23T09:13:24;11.77;;;1.65;;
76693;SDS011;69667;52.136;5.424;2023-05-23T09:16:10;8.20;;;1.70;;
76693;SDS011;69667;52.136;5.424;2023-05-23T09:22:00;9.45;;;2.80;;
76693;SDS011;69667;52.136;5.424;2023-05-23T09:24:33;10.88;;;1.77;;
76693;SDS011;69667;52.136;5.424;2023-05-23T09:27:04;8.68;;;1.92;;
76693;SDS011;69667;52.136;5.424;2023-05-23T09:29:35;9.55;;;2.00;;
76693;SDS011;69667;52.136;5.424;2023-05-23T09:32:13;8.88;;;2.08;;
76693;SDS011;69667;52.136;5.424;2023-05-23T09:34:53;7.95;;;1.77;;
76693;SDS011;69667;52.136;5.424;2023-05-23T09:37:36;9.13;;;1.77;;
76693;SDS011;69667;52.136;5.424;2023-05-23T09:40:08;12.57;;;2.40;;
76693;SDS011;69667;52.136;5.424;2023-05-23T09:42:41;13.82;;;2.38;;
76693;SDS011;69667;52.136;5.424;2023-05-23T09:45:10;9.68;;;2.22;;
76693;SDS011;69667;52.136;5.424;2023-05-23T09:47:37;10.23;;;2.00;;
76693;SDS011;69667;52.136;5.424;2023-05-23T09:50:04;7.03;;;1.90;;
76693;SDS011;69667;52.136;5.424;2023-05-23T09:52:37;10.43;;;2.20;;
76693;SDS011;69667;52.136;5.424;2023-05-23T09:55:04;7.80;;;2.20;;
76693;SDS011;69667;52.136;5.424;2023-05-23T10:00:03;8.02;;;1.80;;
76693;SDS011;69667;52.136;5.424;2023-05-23T10:05:29;7.40;;;2.20;;
76693;SDS011;69667;52.136;5.424;2023-05-23T10:08:03;7.07;;;2.33;;
76693;SDS011;69667;52.136;5.424;2023-05-23T10:21:16;10.20;;;1.85;;
76693;SDS011;69667;52.136;5.424;2023-05-23T10:23:46;8.27;;;2.30;;
76693;SDS011;69667;52.136;5.424;2023-05-23T10:26:13;8.57;;;1.85;;
76693;SDS011;69667;52.136;5.424;2023-05-23T10:28:40;8.30;;;1.90;;
76693;SDS011;69667;52.136;5.424;2023-05-23T10:31:07;8.82;;;2.05;;
76693;SDS011;69667;52.136;5.424;2023-05-23T10:33:37;9.13;;;1.60;;
76693;SDS011;69667;52.136;5.424;2023-05-23T10:36:13;7.90;;;1.60;;
76693;SDS011;69667;52.136;5.424;2023-05-23T10:38:53;7.85;;;1.73;;
76693;SDS011;69667;52.136;5.424;2023-05-23T10:41:38;7.18;;;1.80;;
76693;SDS011;69667;52.136;5.424;2023-05-23T10:44:22;7.63;;;1.77;;
76693;SDS011;69667;52.136;5.424;2023-05-23T10:53:29;7.75;;;1.60;;
76693;SDS011;69667;52.136;5.424;2023-05-23T10:55:57;9.30;;;2.03;;
76693;SDS011;69667;52.136;5.424;2023-05-23T11:11:09;8.75;;;2.10;;
76693;SDS011;69667;52.136;5.424;2023-05-23T11:17:15;9.40;;;2.17;;
76693;SDS011;69667;52.136;5.424;2023-05-23T11:24:01;6.75;;;1.48;;
76693;SDS011;69667;52.136;5.424;2023-05-23T11:29:28;7.32;;;1.50;;
76693;SDS011;69667;52.136;5.424;2023-05-23T11:31:58;9.30;;;1.52;;
76693;SDS011;69667;52.136;5.424;2023-05-23T11:38:19;6.97;;;1.90;;
76693;SDS011;69667;52.136;5.424;2023-05-23T11:40:51;8.75;;;2.33;;
76693;SDS011;69667;52.136;5.424;2023-05-23T11:43:17;6.22;;;1.30;;
76693;SDS011;69667;52.136;5.424;2023-05-23T11:45:45;8.80;;;1.80;;
76693;SDS011;69667;52.136;5.424;2023-05-23T11:48:15;6.68;;;1.50;;
76693;SDS011;69667;52.136;5.424;2023-05-23T11:50:46;6.35;;;1.77;;
76693;SDS011;69667;52.136;5.424;2023-05-23T11:53:15;8.23;;;1.92;;
76693;SDS011;69667;52.136;5.424;2023-05-23T11:55:47;5.97;;;2.25;;
76693;SDS011;69667;52.136;5.424;2023-05-23T11:58:21;8.77;;;2.05;;
76693;SDS011;69667;52.136;5.424;2023-05-23T12:00:48;7.70;;;2.42;;
76693;SDS011;69667;52.136;5.424;2023-05-23T12:03:15;8.48;;;1.70;;
76693;SDS011;69667;52.136;5.424;2023-05-23T12:05:42;5.13;;;1.40;;
76693;SDS011;69667;52.136;5.424;2023-05-23T12:08:11;10.48;;;2.30;;
76693;SDS011;69667;52.136;5.424;2023-05-23T12:10:48;5.95;;;1.50;;
76693;SDS011;69667;52.136;5.424;2023-05-23T12:13:19;4.63;;;1.27;;
76693;SDS011;69667;52.136;5.424;2023-05-23T12:15:45;7.43;;;1.63;;
76693;SDS011;69667;52.136;5.424;2023-05-23T12:18:14;8.65;;;1.73;;
76693;SDS011;69667;52.136;5.424;2023-05-23T12:20:41;5.72;;;1.30;;
76693;SDS011;69667;52.136;5.424;2023-05-23T12:23:16;5.55;;;1.30;;
76693;SDS011;69667;52.136;5.424;2023-05-23T12:25:43;7.55;;;1.65;;
76693;SDS011;69667;52.136;5.424;2023-05-23T12:28:10;6.43;;;1.88;;
76693;SDS011;69667;52.136;5.424;2023-05-23T12:30:42;8.05;;;1.48;;
76693;SDS011;69667;52.136;5.424;2023-05-23T12:33:11;6.47;;;1.40;;
76693;SDS011;69667;52.136;5.424;2023-05-23T12:35:44;8.10;;;1.60;;
76693;SDS011;69667;52.136;5.424;2023-05-23T12:38:14;7.28;;;1.50;;
76693;SDS011;69667;52.136;5.424;2023-05-23T12:40:43;5.43;;;1.45;;
76693;SDS011;69667;52.136;5.424;2023-05-23T12:43:17;7.20;;;1.23;;
76693;SDS011;69667;52.136;5.424;2023-05-23T12:45:44;10.20;;;1.80;;
76693;SDS011;69667;52.136;5.424;2023-05-23T12:48:10;6.75;;;1.58;;
76693;SDS011;69667;52.136;5.424;2023-05-23T12:50:38;9.02;;;1.45;;
76693;SDS011;69667;52.136;5.424;2023-05-23T12:53:04;7.45;;;1.42;;
76693;SDS011;69667;52.136;5.424;2023-05-23T12:55:31;6.38;;;1.45;;
76693;SDS011;69667;52.136;5.424;2023-05-23T12:57:57;11.68;;;1.83;;
76693;SDS011;69667;52.136;5.424;2023-05-23T13:00:24;6.35;;;1.60;;
76693;SDS011;69667;52.136;5.424;2023-05-23T13:02:50;8.93;;;1.90;;
76693;SDS011;69667;52.136;5.424;2023-05-23T13:05:17;10.07;;;2.28;;
76693;SDS011;69667;52.136;5.424;2023-05-23T13:07:44;7.70;;;1.38;;
76693;SDS011;69667;52.136;5.424;2023-05-23T13:10:18;11.77;;;2.33;;
76693;SDS011;69667;52.136;5.424;2023-05-23T13:12:44;7.32;;;1.52;;
76693;SDS011;69667;52.136;5.424;2023-05-23T13:18:12;9.82;;;1.52;;
76693;SDS011;69667;52.136;5.424;2023-05-23T13:25:54;8.05;;;1.75;;
76693;SDS011;69667;52.136;5.424;2023-05-23T13:31:02;9.45;;;1.70;;
76693;SDS011;69667;52.136;5.424;2023-05-23T13:33:28;9.15;;;1.45;;
76693;SDS011;69667;52.136;5.424;2023-05-23T13:42:57;10.20;;;1.90;;
76693;SDS011;69667;52.136;5.424;2023-05-23T13:48:57;6.00;;;1.48;;
76693;SDS011;69667;52.136;5.424;2023-05-23T13:55:03;7.57;;;1.45;;
76693;SDS011;69667;52.136;5.424;2023-05-23T13:57:34;6.63;;;1.40;;
76693;SDS011;69667;52.136;5.424;2023-05-23T14:00:02;6.75;;;1.90;;
76693;SDS011;69667;52.136;5.424;2023-05-23T14:07:07;5.28;;;1.08;;
76693;SDS011;69667;52.136;5.424;2023-05-23T14:18:19;6.50;;;2.00;;
76693;SDS011;69667;52.136;5.424;2023-05-23T14:20:45;6.57;;;1.27;;
76693;SDS011;69667;52.136;5.424;2023-05-23T14:23:12;5.90;;;1.40;;
76693;SDS011;69667;52.136;5.424;2023-05-23T14:25:39;9.32;;;1.92;;
76693;SDS011;69667;52.136;5.424;2023-05-23T14:28:06;10.90;;;1.40;;
76693;SDS011;69667;52.136;5.424;2023-05-23T14:30:33;5.13;;;1.30;;
76693;SDS011;69667;52.136;5.424;2023-05-23T14:33:00;8.05;;;1.27;;
76693;SDS011;69667;52.136;5.424;2023-05-23T14:35:26;7.05;;;1.23;;
76693;SDS011;69667;52.136;5.424;2023-05-23T14:37:54;7.80;;;1.35;;
76693;SDS011;69667;52.136;5.424;2023-05-23T14:40:21;7.38;;;1.40;;
76693;SDS011;69667;52.136;5.424;2023-05-23T14:42:47;9.93;;;2.05;;
76693;SDS011;69667;52.136;5.424;2023-05-23T14:45:14;9.73;;;1.40;;
76693;SDS011;69667;52.136;5.424;2023-05-23T14:47:44;6.43;;;1.20;;
76693;SDS011;69667;52.136;5.424;2023-05-23T14:50:10;7.28;;;1.33;;
76693;SDS011;69667;52.136;5.424;2023-05-23T14:52:37;6.10;;;1.60;;
76693;SDS011;69667;52.136;5.424;2023-05-23T14:55:07;4.28;;;1.25;;
76693;SDS011;69667;52.136;5.424;2023-05-23T14:57:34;11.90;;;1.63;;
76693;SDS011;69667;52.136;5.424;2023-05-23T15:00:00;7.55;;;1.48;;
76693;SDS011;69667;52.136;5.424;2023-05-23T15:05:21;7.97;;;1.42;;
76693;SDS011;69667;52.136;5.424;2023-05-23T15:10:30;7.93;;;1.63;;
76693;SDS011;69667;52.136;5.424;2023-05-23T15:13:00;7.80;;;1.20;;
76693;SDS011;69667;52.136;5.424;2023-05-23T15:16:37;5.35;;;1.08;;
76693;SDS011;69667;52.136;5.424;2023-05-23T15:19:03;4.78;;;1.13;;
76693;SDS011;69667;52.136;5.424;2023-05-23T15:21:31;4.40;;;1.10;;
76693;SDS011;69667;52.136;5.424;2023-05-23T15:24:22;3.97;;;1.10;;
76693;SDS011;69667;52.136;5.424;2023-05-23T15:26:49;6.15;;;1.23;;
76693;SDS011;69667;52.136;5.424;2023-05-23T15:29:16;5.13;;;1.23;;
76693;SDS011;69667;52.136;5.424;2023-05-23T15:31:43;7.22;;;1.20;;
76693;SDS011;69667;52.136;5.424;2023-05-23T15:34:10;7.93;;;1.10;;
76693;SDS011;69667;52.136;5.424;2023-05-23T15:39:27;10.02;;;1.50;;
76693;SDS011;69667;52.136;5.424;2023-05-23T15:41:53;5.50;;;1.23;;
76693;SDS011;69667;52.136;5.424;2023-05-23T15:44:20;5.65;;;1.42;;
76693;SDS011;69667;52.136;5.424;2023-05-23T15:46:48;6.78;;;1.33;;
76693;SDS011;69667;52.136;5.424;2023-05-23T15:49:16;8.13;;;1.38;;
76693;SDS011;69667;52.136;5.424;2023-05-23T15:51:51;8.50;;;2.05;;
76693;SDS011;69667;52.136;5.424;2023-05-23T15:54:19;5.72;;;1.45;;
76693;SDS011;69667;52.136;5.424;2023-05-23T15:56:46;7.90;;;1.60;;
76693;SDS011;69667;52.136;5.424;2023-05-23T15:59:13;7.75;;;1.85;;
76693;SDS011;69667;52.136;5.424;2023-05-23T16:01:40;8.15;;;1.30;;
76693;SDS011;69667;52.136;5.424;2023-05-23T16:04:07;8.88;;;1.52;;
76693;SDS011;69667;52.136;5.424;2023-05-23T16:06:33;7.85;;;1.13;;
76693;SDS011;69667;52.136;5.424;2023-05-23T16:09:01;6.38;;;1.40;;
76693;SDS011;69667;52.136;5.424;2023-05-23T16:11:28;5.40;;;1.20;;
76693;SDS011;69667;52.136;5.424;2023-05-23T16:13:55;8.60;;;1.45;;
76693;SDS011;69667;52.136;5.424;2023-05-23T16:16:21;4.97;;;1.23;;
76693;SDS011;69667;52.136;5.424;2023-05-23T16:18:48;6.40;;;1.50;;
76693;SDS011;69667;52.136;5.424;2023-05-23T16:21:15;9.82;;;1.40;;
76693;SDS011;69667;52.136;5.424;2023-05-23T16:23:46;6.78;;;1.23;;
76693;SDS011;69667;52.136;5.424;2023-05-23T16:26:13;5.25;;;1.15;;
76693;SDS011;69667;52.136;5.424;2023-05-23T16:28:41;7.13;;;1.48;;
76693;SDS011;69667;52.136;5.424;2023-05-23T16:31:13;8.20;;;1.10;;
76693;SDS011;69667;52.136;5.424;2023-05-23T16:33:40;7.95;;;1.42;;
76693;SDS011;69667;52.136;5.424;2023-05-23T16:36:07;7.80;;;1.52;;
76693;SDS011;69667;52.136;5.424;2023-05-23T16:38:34;8.32;;;1.05;;
76693;SDS011;69667;52.136;5.424;2023-05-23T16:41:00;5.43;;;1.02;;
76693;SDS011;69667;52.136;5.424;2023-05-23T16:43:27;5.75;;;1.25;;
76693;SDS011;69667;52.136;5.424;2023-05-23T16:45:53;6.97;;;1.25;;
76693;SDS011;69667;52.136;5.424;2023-05-23T16:48:20;5.22;;;1.17;;
76693;SDS011;69667;52.136;5.424;2023-05-23T16:50:47;7.45;;;1.13;;